createdAt,value
2017-08-15T00:02:05.418Z,19.30
2017-08-15T00:04:31.697Z,19.10
2017-08-15T00:06:58.993Z,19.20
2017-08-15T00:09:27.424Z,19.20
2017-08-15T00:11:54.706Z,19.30
2017-08-15T00:14:21.655Z,19.20
2017-08-15T00:16:49.151Z,19.20
2017-08-15T00:19:16.039Z,19.20
2017-08-15T00:21:43.229Z,19.00
2017-08-15T00:24:10.136Z,19.10
2017-08-15T00:26:37.365Z,19.00
2017-08-15T00:29:03.637Z,19.00
2017-08-15T00:31:29.931Z,19.00
2017-08-15T00:33:56.209Z,18.80
2017-08-15T00:36:22.508Z,18.70
2017-08-15T00:38:49.180Z,18.80
2017-08-15T00:41:15.448Z,18.80
2017-08-15T00:43:41.753Z,18.80
2017-08-15T00:46:08.058Z,18.80
2017-08-15T00:48:34.359Z,18.90
2017-08-15T00:51:00.651Z,18.90
2017-08-15T00:53:26.938Z,18.90
2017-08-15T00:55:53.226Z,18.90
2017-08-15T00:58:19.549Z,18.70
2017-08-15T01:00:45.854Z,18.60
2017-08-15T01:03:12.167Z,18.60
2017-08-15T01:05:38.454Z,18.60
2017-08-15T01:08:04.754Z,18.60
2017-08-15T01:10:31.048Z,18.40
2017-08-15T01:12:57.301Z,18.60
2017-08-15T01:15:23.605Z,18.50
2017-08-15T01:17:49.869Z,18.40
2017-08-15T01:20:16.227Z,18.50
2017-08-15T01:22:42.504Z,18.40
2017-08-15T01:25:08.792Z,18.50
2017-08-15T01:27:35.066Z,18.50
2017-08-15T01:30:01.317Z,18.50
2017-08-15T01:32:27.610Z,18.60
2017-08-15T01:34:53.856Z,18.60
2017-08-15T01:37:20.158Z,18.50
2017-08-15T01:39:46.480Z,18.50
2017-08-15T01:42:13.138Z,18.50
2017-08-15T01:44:39.388Z,18.50
2017-08-15T01:47:05.665Z,18.50
2017-08-15T01:49:31.966Z,18.40
2017-08-15T01:51:58.223Z,18.40
2017-08-15T01:54:24.528Z,18.40
2017-08-15T01:56:50.795Z,18.30
2017-08-15T01:59:17.078Z,18.40
2017-08-15T02:01:43.360Z,18.40
2017-08-15T02:04:10.021Z,18.30
2017-08-15T02:06:36.328Z,18.30
2017-08-15T02:09:02.657Z,18.30
2017-08-15T02:11:28.922Z,18.20
2017-08-15T02:13:55.587Z,18.20
2017-08-15T02:16:21.841Z,18.10
2017-08-15T02:18:48.112Z,18.10
2017-08-15T02:21:14.401Z,18.10
2017-08-15T02:23:41.033Z,18.00
2017-08-15T02:26:07.292Z,18.00
2017-08-15T02:28:33.541Z,18.00
2017-08-15T02:30:59.839Z,17.90
2017-08-15T02:33:26.105Z,17.70
2017-08-15T02:35:52.409Z,17.60
2017-08-15T02:38:18.684Z,17.50
2017-08-15T02:40:45.247Z,17.70
2017-08-15T02:43:11.550Z,17.70
2017-08-15T02:45:37.825Z,17.80
2017-08-15T02:48:04.102Z,17.60
2017-08-15T02:50:30.420Z,17.50
2017-08-15T02:52:56.718Z,17.70
2017-08-15T02:55:22.979Z,17.70
2017-08-15T02:57:49.260Z,17.80
2017-08-15T03:00:15.538Z,17.80
2017-08-15T03:02:42.110Z,17.70
2017-08-15T03:05:08.398Z,17.60
2017-08-15T03:07:34.652Z,17.50
2017-08-15T03:10:00.944Z,17.60
2017-08-15T03:12:27.222Z,17.60
2017-08-15T03:14:53.522Z,17.60
2017-08-15T03:17:19.789Z,17.70
2017-08-15T03:19:46.069Z,17.70
2017-08-15T03:22:12.365Z,17.70
2017-08-15T03:24:38.976Z,17.60
2017-08-15T03:27:05.238Z,17.60
2017-08-15T03:29:31.484Z,17.50
2017-08-15T03:31:58.457Z,17.60
2017-08-15T03:34:24.741Z,17.70
2017-08-15T03:36:51.081Z,17.70
2017-08-15T03:39:17.353Z,17.60
2017-08-15T03:41:43.636Z,17.70
2017-08-15T03:44:09.893Z,17.90
2017-08-15T03:46:36.170Z,18.00
2017-08-15T03:49:02.838Z,18.20
2017-08-15T03:51:29.678Z,18.20
2017-08-15T03:53:55.953Z,18.20
2017-08-15T03:56:22.232Z,18.10
2017-08-15T03:58:48.512Z,18.00
2017-08-15T04:01:14.791Z,18.00
2017-08-15T04:03:41.077Z,17.90
2017-08-15T04:06:07.347Z,17.80
2017-08-15T04:08:33.643Z,17.90
2017-08-15T04:10:59.942Z,18.00
2017-08-15T04:13:26.233Z,18.00
2017-08-15T04:15:52.492Z,18.10
2017-08-15T04:18:18.783Z,18.10
2017-08-15T04:20:45.074Z,18.10
2017-08-15T04:23:11.333Z,18.10
2017-08-15T04:25:37.620Z,18.10
2017-08-15T04:28:03.885Z,18.10
2017-08-15T04:30:30.841Z,18.10
2017-08-15T04:32:57.099Z,18.10
2017-08-15T04:35:23.379Z,17.90
2017-08-15T04:37:49.673Z,18.00
2017-08-15T04:40:15.961Z,18.10
2017-08-15T04:42:42.248Z,18.20
2017-08-15T04:45:08.526Z,18.20
2017-08-15T04:47:34.808Z,17.90
2017-08-15T04:50:01.073Z,17.70
2017-08-15T04:52:27.366Z,17.70
2017-08-15T04:54:53.652Z,17.90
2017-08-15T04:57:19.916Z,17.90
2017-08-15T04:59:47.137Z,18.00
2017-08-15T05:02:13.827Z,18.10
2017-08-15T05:04:40.112Z,18.10
2017-08-15T05:07:06.386Z,18.30
2017-08-15T05:09:32.680Z,18.60
2017-08-15T05:11:58.972Z,18.70
2017-08-15T05:14:25.247Z,18.70
2017-08-15T05:16:51.557Z,18.60
2017-08-15T05:19:17.827Z,18.90
2017-08-15T05:21:44.089Z,18.90
2017-08-15T05:24:10.394Z,18.80
2017-08-15T05:26:36.646Z,18.80
2017-08-15T05:29:03.297Z,19.00
2017-08-15T05:31:29.577Z,18.90
2017-08-15T05:33:55.846Z,18.90
2017-08-15T05:36:22.153Z,18.90
2017-08-15T05:38:48.424Z,18.80
2017-08-15T05:41:14.712Z,18.70
2017-08-15T05:43:40.981Z,18.80
2017-08-15T05:46:07.274Z,18.80
2017-08-15T05:48:33.908Z,18.50
2017-08-15T05:51:00.199Z,18.50
2017-08-15T05:53:26.513Z,18.60
2017-08-15T05:55:52.788Z,18.60
2017-08-15T05:58:19.095Z,18.50
2017-08-15T06:00:45.349Z,18.70
2017-08-15T06:03:11.657Z,18.80
2017-08-15T06:05:37.935Z,18.70
2017-08-15T06:08:04.195Z,18.70
2017-08-15T06:10:30.475Z,18.80
2017-08-15T06:12:56.743Z,19.00
2017-08-15T06:15:23.052Z,19.00
2017-08-15T06:17:49.709Z,19.10
2017-08-15T06:20:16.021Z,19.20
2017-08-15T06:22:42.296Z,19.20
2017-08-15T06:25:08.582Z,19.50
2017-08-15T06:27:34.930Z,19.60
2017-08-15T06:30:01.205Z,19.50
2017-08-15T06:32:27.491Z,19.60
2017-08-15T06:34:53.751Z,19.80
2017-08-15T06:37:20.082Z,20.00
2017-08-15T06:39:46.350Z,20.20
2017-08-15T06:42:12.664Z,20.40
2017-08-15T06:44:39.853Z,20.70
2017-08-15T06:47:06.569Z,20.80
2017-08-15T06:49:32.843Z,21.00
2017-08-15T06:51:59.226Z,20.80
2017-08-15T06:54:25.560Z,20.80
2017-08-15T06:56:52.221Z,20.70
2017-08-15T06:59:18.500Z,20.70
2017-08-15T07:01:44.789Z,20.60
2017-08-15T07:04:11.089Z,20.70
2017-08-15T07:06:37.724Z,20.90
2017-08-15T07:09:04.017Z,20.90
2017-08-15T07:11:30.294Z,21.00
2017-08-15T07:13:56.921Z,21.10
2017-08-15T07:16:23.201Z,21.00
2017-08-15T07:18:49.474Z,21.00
2017-08-15T07:21:16.128Z,21.20
2017-08-15T07:23:42.393Z,21.20
2017-08-15T07:26:08.737Z,21.40
2017-08-15T07:28:35.005Z,21.30
2017-08-15T07:31:01.676Z,21.30
2017-08-15T07:33:27.984Z,21.30
2017-08-15T07:35:54.396Z,21.40
2017-08-15T07:38:20.677Z,21.60
2017-08-15T07:40:46.954Z,21.60
2017-08-15T07:43:13.249Z,21.70
2017-08-15T07:45:39.581Z,21.60
2017-08-15T07:48:06.150Z,21.80
2017-08-15T07:50:32.443Z,21.70
2017-08-15T07:52:58.716Z,21.90
2017-08-15T07:55:25.071Z,22.10
2017-08-15T07:57:51.351Z,22.20
2017-08-15T08:00:17.648Z,22.40
2017-08-15T08:02:43.921Z,22.50
2017-08-15T08:05:10.231Z,22.40
2017-08-15T08:07:36.491Z,22.60
2017-08-15T08:10:03.144Z,22.70
2017-08-15T08:12:29.854Z,22.60
2017-08-15T08:14:56.125Z,22.60
2017-08-15T08:17:22.430Z,22.80
2017-08-15T08:19:49.058Z,23.00
2017-08-15T08:22:15.365Z,23.00
2017-08-15T08:24:41.604Z,22.90
2017-08-15T08:27:07.891Z,23.00
2017-08-15T08:29:34.176Z,23.30
2017-08-15T08:32:00.860Z,23.60
2017-08-15T08:34:27.145Z,23.60
2017-08-15T08:36:53.738Z,23.70
2017-08-15T08:39:20.026Z,24.00
2017-08-15T08:41:46.299Z,24.20
2017-08-15T08:44:12.582Z,24.30
2017-08-15T08:46:39.220Z,24.80
2017-08-15T08:49:05.907Z,24.90
2017-08-15T08:51:32.171Z,24.90
2017-08-15T08:53:58.505Z,24.80
2017-08-15T08:56:24.756Z,24.90
2017-08-15T08:58:51.732Z,25.10
2017-08-15T09:01:18.047Z,25.10
2017-08-15T09:03:44.350Z,25.20
2017-08-15T09:06:10.645Z,25.00
2017-08-15T09:08:36.946Z,25.10
2017-08-15T09:11:03.802Z,25.10
2017-08-15T09:13:30.057Z,25.30
2017-08-15T09:15:56.362Z,25.40
2017-08-15T09:18:22.636Z,25.40
2017-08-15T09:20:49.887Z,25.40
2017-08-15T09:23:16.504Z,25.20
2017-08-15T09:25:42.773Z,25.20
2017-08-15T09:28:09.095Z,25.30
2017-08-15T09:30:35.372Z,25.40
2017-08-15T09:33:01.674Z,25.60
2017-08-15T09:35:27.912Z,25.90
2017-08-15T09:37:54.189Z,26.20
2017-08-15T09:40:20.461Z,26.50
2017-08-15T09:42:47.263Z,26.60
2017-08-15T09:45:16.460Z,26.80
2017-08-15T09:47:42.778Z,26.90
2017-08-15T09:50:09.072Z,26.80
2017-08-15T09:52:36.124Z,26.90
2017-08-15T09:55:03.113Z,27.00
2017-08-15T09:57:29.402Z,27.00
2017-08-15T09:59:55.664Z,27.30
2017-08-15T10:02:21.963Z,27.40
2017-08-15T10:04:48.262Z,27.50
2017-08-15T10:07:14.544Z,27.50
2017-08-15T10:09:41.118Z,27.70
2017-08-15T10:12:07.416Z,27.70
2017-08-15T10:14:33.674Z,27.80
2017-08-15T10:17:00.351Z,27.90
2017-08-15T10:19:27.219Z,27.90
2017-08-15T10:21:53.502Z,27.80
2017-08-15T10:24:19.793Z,27.90
2017-08-15T10:26:46.069Z,28.00
2017-08-15T10:29:12.338Z,28.00
2017-08-15T10:31:40.683Z,28.20
2017-08-15T10:34:06.951Z,28.10
2017-08-15T10:36:33.934Z,28.20
2017-08-15T10:39:00.214Z,28.20
2017-08-15T10:41:26.494Z,28.70
2017-08-15T10:43:52.786Z,29.10
2017-08-15T10:46:19.058Z,29.30
2017-08-15T10:48:45.416Z,29.40
2017-08-15T10:51:11.694Z,29.40
2017-08-15T10:53:38.326Z,29.90
2017-08-15T10:56:04.953Z,30.10
2017-08-15T10:58:31.268Z,30.10
2017-08-15T11:00:57.614Z,30.30
2017-08-15T11:03:24.344Z,30.50
2017-08-15T11:05:51.509Z,30.80
2017-08-15T11:08:17.804Z,31.30
2017-08-15T11:10:44.098Z,32.00
2017-08-15T11:13:10.356Z,32.70
2017-08-15T11:15:36.645Z,33.00
2017-08-15T11:18:03.278Z,33.50
2017-08-15T11:20:29.977Z,33.20
2017-08-15T11:22:56.254Z,33.20
2017-08-15T11:25:22.533Z,32.90
2017-08-15T11:27:48.793Z,33.20
2017-08-15T11:30:15.517Z,33.00
2017-08-15T11:32:41.764Z,32.90
2017-08-15T11:35:08.064Z,32.90
2017-08-15T11:37:34.348Z,32.90
2017-08-15T11:40:00.623Z,33.10
2017-08-15T11:42:26.932Z,33.90
2017-08-15T11:44:53.205Z,34.50
2017-08-15T11:47:20.439Z,35.70
2017-08-15T11:49:46.702Z,36.70
2017-08-15T11:52:13.828Z,36.50
2017-08-15T11:54:40.097Z,36.50
2017-08-15T11:57:06.369Z,36.90
2017-08-15T11:59:32.662Z,37.60
2017-08-15T12:01:59.727Z,38.00
2017-08-15T12:04:26.019Z,37.90
2017-08-15T12:06:52.330Z,39.00
2017-08-15T12:09:18.626Z,40.40
2017-08-15T12:11:44.909Z,42.20
2017-08-15T12:14:11.201Z,42.90
2017-08-15T12:16:38.884Z,44.00
2017-08-15T12:19:05.195Z,44.20
2017-08-15T12:21:31.500Z,45.80
2017-08-15T12:23:57.816Z,47.20
2017-08-15T12:26:24.118Z,48.90
2017-08-15T12:28:50.389Z,47.80
2017-08-15T12:31:16.719Z,45.80
2017-08-15T12:33:43.036Z,44.60
2017-08-15T12:36:09.306Z,43.20
2017-08-15T12:38:35.588Z,42.90
2017-08-15T12:41:01.838Z,44.30
2017-08-15T12:43:28.129Z,46.10
2017-08-15T12:45:54.432Z,46.60
2017-08-15T12:48:20.730Z,47.80
2017-08-15T12:50:47.011Z,48.60
2017-08-15T12:53:14.003Z,49.40
2017-08-15T12:55:40.294Z,49.40
2017-08-15T12:58:06.970Z,50.40
2017-08-15T13:00:34.085Z,49.50
2017-08-15T13:03:00.406Z,49.80
2017-08-15T13:05:26.725Z,48.20
2017-08-15T13:07:53.365Z,48.30
2017-08-15T13:10:20.025Z,47.80
2017-08-15T13:12:46.283Z,47.80
2017-08-15T13:15:12.562Z,49.50
2017-08-15T13:17:38.905Z,49.40
2017-08-15T13:20:05.558Z,50.40
2017-08-15T13:22:31.848Z,50.40
2017-08-15T13:24:58.494Z,51.50
2017-08-15T13:27:24.808Z,50.60
2017-08-15T13:29:51.049Z,51.90
2017-08-15T13:32:17.732Z,53.30
2017-08-15T13:34:44.049Z,53.30
2017-08-15T13:37:10.395Z,52.70
2017-08-15T13:39:36.711Z,52.20
2017-08-15T13:42:02.989Z,52.60
2017-08-15T13:44:29.291Z,51.30
2017-08-15T13:46:55.611Z,51.70
2017-08-15T13:49:21.926Z,50.30
2017-08-15T13:51:48.216Z,50.20
2017-08-15T13:54:14.507Z,50.60
2017-08-15T13:56:40.783Z,51.00
2017-08-15T13:59:07.096Z,50.80
2017-08-15T14:01:33.427Z,50.90
2017-08-15T14:03:59.745Z,52.10
2017-08-15T14:06:26.063Z,51.80
2017-08-15T14:08:52.378Z,51.50
2017-08-15T14:11:18.680Z,52.10
2017-08-15T14:13:44.979Z,52.20
2017-08-15T14:16:11.320Z,51.60
2017-08-15T14:18:37.613Z,51.40
2017-08-15T14:21:03.911Z,51.80
2017-08-15T14:23:30.218Z,51.60
2017-08-15T14:25:56.812Z,50.40
2017-08-15T14:28:23.097Z,50.10
2017-08-15T14:30:49.385Z,50.90
2017-08-15T14:33:15.699Z,51.30
2017-08-15T14:35:42.005Z,51.20
2017-08-15T14:38:08.290Z,51.50
2017-08-15T14:40:34.588Z,49.50
2017-08-15T14:43:00.911Z,49.10
2017-08-15T14:45:27.227Z,49.20
2017-08-15T14:47:53.566Z,49.50
2017-08-15T14:50:19.858Z,48.70
2017-08-15T14:52:46.542Z,48.70
2017-08-15T14:55:12.855Z,48.70
2017-08-15T14:57:39.185Z,48.70
2017-08-15T15:00:05.887Z,49.20
2017-08-15T15:02:32.201Z,48.70
2017-08-15T15:04:58.492Z,47.60
2017-08-15T15:07:24.823Z,47.90
2017-08-15T15:09:51.131Z,48.90
2017-08-15T15:12:17.430Z,48.20
2017-08-15T15:14:43.717Z,45.30
2017-08-15T15:17:10.517Z,42.00
2017-08-15T15:19:36.813Z,39.10
2017-08-15T15:22:03.147Z,37.40
2017-08-15T15:24:29.486Z,36.30
2017-08-15T15:26:55.783Z,35.10
2017-08-15T15:29:22.109Z,34.10
2017-08-15T15:31:48.412Z,33.20
2017-08-15T15:34:15.150Z,31.80
2017-08-15T15:36:41.440Z,31.80
2017-08-15T15:39:08.171Z,31.10
2017-08-15T15:41:34.535Z,30.90
2017-08-15T15:44:00.843Z,30.60
2017-08-15T15:46:27.140Z,30.60
2017-08-15T15:48:53.433Z,30.30
2017-08-15T15:51:20.130Z,29.80
2017-08-15T15:53:46.427Z,29.80
2017-08-15T15:56:12.726Z,29.70
2017-08-15T15:58:39.398Z,30.00
2017-08-15T16:01:06.104Z,30.00
2017-08-15T16:03:32.404Z,30.10
2017-08-15T16:05:58.684Z,30.00
2017-08-15T16:08:24.962Z,29.70
2017-08-15T16:10:51.238Z,29.60
2017-08-15T16:13:17.530Z,29.30
2017-08-15T16:15:45.038Z,28.60
2017-08-15T16:18:11.351Z,28.60
2017-08-15T16:20:37.661Z,28.50
2017-08-15T16:23:03.945Z,28.30
2017-08-15T16:25:30.250Z,28.30
2017-08-15T16:27:56.525Z,28.30
2017-08-15T16:30:22.798Z,28.30
2017-08-15T16:32:49.050Z,28.10
2017-08-15T16:35:16.300Z,28.00
2017-08-15T16:37:42.570Z,27.90
2017-08-15T16:40:08.873Z,27.90
2017-08-15T16:42:35.337Z,27.70
2017-08-15T16:45:02.068Z,27.30
2017-08-15T16:47:28.384Z,27.30
2017-08-15T16:49:54.720Z,27.40
2017-08-15T16:52:21.689Z,27.30
2017-08-15T16:54:48.981Z,27.00
2017-08-15T16:57:15.583Z,26.80
2017-08-15T16:59:42.706Z,26.70
2017-08-15T17:02:09.003Z,26.60
2017-08-15T17:04:35.322Z,26.50
2017-08-15T17:07:01.633Z,26.50
2017-08-15T17:09:27.946Z,26.40
2017-08-15T17:11:54.236Z,26.40
2017-08-15T17:14:20.530Z,26.40
2017-08-15T17:16:46.817Z,26.40
2017-08-15T17:19:13.401Z,26.40
2017-08-15T17:21:39.701Z,26.30
2017-08-15T17:24:05.983Z,26.20
2017-08-15T17:26:32.305Z,26.20
2017-08-15T17:28:58.574Z,26.20
2017-08-15T17:31:25.565Z,25.90
2017-08-15T17:33:51.876Z,25.60
2017-08-15T17:36:18.567Z,25.10
2017-08-15T17:38:44.851Z,25.10
2017-08-15T17:41:11.279Z,25.10
2017-08-15T17:43:37.542Z,25.10
2017-08-15T17:46:03.865Z,25.20
2017-08-15T17:48:30.153Z,25.20
2017-08-15T17:50:56.455Z,25.20
2017-08-15T17:53:22.804Z,25.10
2017-08-15T17:55:49.093Z,25.00
2017-08-15T17:58:15.404Z,24.80
2017-08-15T18:00:41.745Z,25.00
2017-08-15T18:03:08.088Z,25.10
2017-08-15T18:05:34.360Z,25.00
2017-08-15T18:08:02.038Z,25.10
2017-08-15T18:10:28.392Z,25.20
2017-08-15T18:12:55.662Z,25.00
2017-08-15T18:15:21.963Z,25.10
2017-08-15T18:17:48.887Z,25.00
2017-08-15T18:20:15.560Z,23.80
2017-08-15T18:22:42.885Z,23.80
2017-08-15T18:25:09.466Z,22.70
2017-08-15T18:27:37.324Z,22.00
2017-08-15T18:30:03.622Z,21.90
2017-08-15T18:32:29.983Z,21.70
2017-08-15T18:34:57.506Z,21.80
2017-08-15T18:37:23.827Z,21.60
2017-08-15T18:39:50.171Z,21.40
2017-08-15T18:42:17.450Z,21.10
2017-08-15T18:44:44.701Z,21.10
2017-08-15T18:47:11.007Z,21.20
2017-08-15T18:49:37.626Z,21.20
2017-08-15T18:52:04.362Z,21.20
2017-08-15T18:54:30.659Z,21.30
2017-08-15T18:56:56.950Z,21.20
2017-08-15T18:59:23.345Z,21.20
2017-08-15T19:01:50.449Z,21.10
2017-08-15T19:04:16.782Z,21.10
2017-08-15T19:06:43.059Z,21.20
2017-08-15T19:09:09.435Z,21.10
2017-08-15T19:11:35.763Z,20.90
2017-08-15T19:14:04.028Z,20.90
2017-08-15T19:16:30.424Z,21.00
2017-08-15T19:18:56.716Z,21.20
2017-08-15T19:21:23.899Z,21.30
2017-08-15T19:23:51.131Z,21.30
2017-08-15T19:26:17.470Z,21.40
2017-08-15T19:28:44.330Z,21.50
2017-08-15T19:31:10.757Z,21.60
2017-08-15T19:33:37.060Z,21.70
2017-08-15T19:36:04.105Z,21.80
2017-08-15T19:38:30.419Z,21.70
2017-08-15T19:40:57.469Z,21.70
2017-08-15T19:43:23.777Z,21.60
2017-08-15T19:45:50.183Z,21.60
2017-08-15T19:48:16.826Z,21.50
2017-08-15T19:50:43.128Z,21.30
2017-08-15T19:53:09.448Z,21.20
2017-08-15T19:55:35.765Z,21.30
2017-08-15T19:58:02.253Z,21.20
2017-08-15T20:00:28.595Z,21.30
2017-08-15T20:02:55.410Z,21.40
2017-08-15T20:05:21.992Z,21.40
2017-08-15T20:07:48.444Z,21.30
2017-08-15T20:10:15.817Z,21.10
2017-08-15T20:12:42.111Z,21.10
2017-08-15T20:15:08.429Z,21.20
2017-08-15T20:17:34.715Z,21.20
2017-08-15T20:20:01.478Z,21.30
2017-08-15T20:22:28.365Z,21.20
2017-08-15T20:24:54.987Z,21.00
2017-08-15T20:27:21.387Z,20.90
2017-08-15T20:29:47.754Z,20.90
2017-08-15T20:32:14.121Z,21.00
2017-08-15T20:34:40.444Z,21.10
2017-08-15T20:37:06.731Z,21.00
2017-08-15T20:39:33.018Z,21.10
2017-08-15T20:42:00.567Z,21.20
2017-08-15T20:44:26.870Z,21.30
2017-08-15T20:46:53.148Z,21.40
2017-08-15T20:49:19.452Z,21.30
2017-08-15T20:51:46.162Z,21.00
2017-08-15T20:54:12.532Z,20.80
2017-08-15T20:56:38.868Z,20.70
2017-08-15T20:59:05.207Z,20.90
2017-08-15T21:01:31.510Z,21.10
2017-08-15T21:03:57.866Z,21.20
2017-08-15T21:06:24.188Z,20.80
2017-08-15T21:08:50.519Z,20.70
2017-08-15T21:11:16.781Z,20.80
2017-08-15T21:13:43.054Z,20.90
2017-08-15T21:16:09.632Z,21.00
2017-08-15T21:18:35.909Z,21.20
2017-08-15T21:21:02.206Z,21.30
2017-08-15T21:23:28.601Z,21.20
2017-08-15T21:25:54.927Z,21.10
2017-08-15T21:28:24.044Z,21.30
2017-08-15T21:30:50.342Z,21.30
2017-08-15T21:33:16.650Z,21.40
2017-08-15T21:35:42.912Z,21.40
2017-08-15T21:38:10.153Z,21.40
2017-08-15T21:40:36.917Z,21.50
2017-08-15T21:43:03.240Z,21.50
2017-08-15T21:45:29.585Z,21.40
2017-08-15T21:47:55.861Z,21.30
2017-08-15T21:50:23.029Z,21.20
2017-08-15T21:52:49.902Z,21.20
2017-08-15T21:55:17.124Z,21.00
2017-08-15T21:57:45.180Z,21.10
2017-08-15T22:00:11.997Z,20.90
2017-08-15T22:02:38.871Z,20.70
2017-08-15T22:05:05.173Z,20.70
2017-08-15T22:07:31.832Z,20.60
2017-08-15T22:09:58.098Z,20.70
2017-08-15T22:12:24.400Z,20.60
2017-08-15T22:14:50.694Z,20.50
2017-08-15T22:17:17.394Z,20.50
2017-08-15T22:19:43.706Z,20.50
2017-08-15T22:22:09.993Z,20.30
2017-08-15T22:24:36.662Z,20.40
2017-08-15T22:27:02.944Z,20.40
2017-08-15T22:29:30.123Z,20.50
2017-08-15T22:31:56.773Z,20.60
2017-08-15T22:34:23.040Z,20.60
2017-08-15T22:36:49.346Z,20.70
2017-08-15T22:39:15.615Z,20.70
2017-08-15T22:41:41.898Z,20.60
2017-08-15T22:44:08.175Z,20.70
2017-08-15T22:46:34.468Z,20.80
2017-08-15T22:49:00.758Z,21.00
2017-08-15T22:51:27.439Z,21.10
2017-08-15T22:53:53.710Z,21.10
2017-08-15T22:56:20.012Z,21.20
2017-08-15T22:58:46.291Z,21.20
2017-08-15T23:01:12.980Z,21.20
2017-08-15T23:03:39.259Z,21.20
2017-08-15T23:06:05.561Z,21.20
2017-08-15T23:08:31.834Z,21.20
2017-08-15T23:10:58.162Z,21.20
2017-08-15T23:13:24.471Z,21.20
2017-08-15T23:15:51.623Z,21.20
2017-08-15T23:18:17.900Z,21.20
2017-08-15T23:20:44.210Z,21.20
2017-08-15T23:23:10.499Z,21.20
2017-08-15T23:25:36.774Z,21.20
2017-08-15T23:28:03.070Z,21.20
2017-08-15T23:30:29.353Z,21.10
2017-08-15T23:32:55.616Z,21.20
2017-08-15T23:35:21.889Z,21.20
2017-08-15T23:37:48.290Z,21.10
2017-08-15T23:40:14.707Z,21.10
2017-08-15T23:42:42.850Z,21.10
2017-08-15T23:45:09.174Z,21.10
2017-08-15T23:47:35.435Z,21.10
2017-08-15T23:50:01.712Z,21.00
2017-08-15T23:52:27.981Z,20.80
2017-08-15T23:54:54.278Z,20.90
2017-08-15T23:57:20.579Z,20.90
2017-08-15T23:59:46.882Z,20.90
